Metar z pełnej godziny Komunikat METAR ze strony awiacja.imgw.pl Metar G00 EPMO METAR EPMO 200200Z 19003KT 6000 NSC 17/16 Q1016 =